createdAt,value
2022-11-13T00:00:49.770Z,0
2022-11-13T00:02:06.073Z,0
2022-11-13T00:03:22.371Z,0
2022-11-13T00:04:38.663Z,0
2022-11-13T00:05:54.957Z,0
2022-11-13T00:07:11.239Z,0
2022-11-13T00:08:27.533Z,0
2022-11-13T00:09:43.824Z,0
2022-11-13T00:11:00.112Z,0
2022-11-13T00:12:15.429Z,0
2022-11-13T00:13:31.722Z,0
2022-11-13T00:14:48.021Z,0
2022-11-13T00:16:04.317Z,0
2022-11-13T00:17:20.606Z,0
2022-11-13T00:18:36.899Z,0
2022-11-13T00:19:53.194Z,0
2022-11-13T00:21:09.491Z,0
2022-11-13T00:22:25.780Z,0
2022-11-13T00:23:42.074Z,0
2022-11-13T00:24:58.373Z,0
2022-11-13T00:26:14.663Z,0
2022-11-13T00:27:30.946Z,0
2022-11-13T00:28:46.259Z,0
2022-11-13T00:30:02.546Z,0
2022-11-13T00:31:18.845Z,0
2022-11-13T00:32:35.128Z,0
2022-11-13T00:33:51.435Z,0
2022-11-13T00:35:07.717Z,0
2022-11-13T00:36:24.013Z,0
2022-11-13T00:37:40.304Z,0
2022-11-13T00:38:56.611Z,0
2022-11-13T00:40:12.895Z,0
2022-11-13T00:41:29.185Z,0
2022-11-13T00:42:45.491Z,0
2022-11-13T00:44:01.771Z,0
2022-11-13T00:45:17.092Z,0
2022-11-13T00:46:33.385Z,0
2022-11-13T00:47:49.682Z,0
2022-11-13T00:49:05.959Z,0
2022-11-13T00:50:22.256Z,0
2022-11-13T00:51:38.560Z,0
2022-11-13T00:52:54.850Z,0
2022-11-13T00:54:11.133Z,0
2022-11-13T00:55:27.440Z,0
2022-11-13T00:56:43.717Z,0
2022-11-13T00:58:00.030Z,0
2022-11-13T00:59:16.309Z,0
2022-11-13T01:00:32.601Z,0
2022-11-13T01:01:47.914Z,0
2022-11-13T01:03:04.200Z,0
2022-11-13T01:04:20.510Z,0
2022-11-13T01:05:36.804Z,0
2022-11-13T01:06:53.097Z,0
2022-11-13T01:08:09.391Z,0
2022-11-13T01:09:25.686Z,0
2022-11-13T01:10:41.959Z,0
2022-11-13T01:11:58.264Z,0
2022-11-13T01:13:14.558Z,0
2022-11-13T01:14:30.843Z,0
2022-11-13T01:15:47.134Z,0
2022-11-13T01:17:03.440Z,0
2022-11-13T01:18:18.745Z,0
2022-11-13T01:19:35.030Z,0
2022-11-13T01:20:51.341Z,0
2022-11-13T01:22:07.626Z,0
2022-11-13T01:23:23.910Z,0
2022-11-13T01:24:40.203Z,0
2022-11-13T01:25:56.500Z,0
2022-11-13T01:27:12.787Z,0
2022-11-13T01:28:29.096Z,0
2022-11-13T01:29:45.385Z,0
2022-11-13T01:31:01.686Z,0
2022-11-13T01:32:17.980Z,0
2022-11-13T01:33:34.272Z,0
2022-11-13T01:34:49.565Z,0
2022-11-13T01:36:05.876Z,0
2022-11-13T01:37:22.157Z,0
2022-11-13T01:38:38.445Z,0
2022-11-13T01:39:54.754Z,0
2022-11-13T01:41:11.047Z,0
2022-11-13T01:42:26.346Z,0
2022-11-13T01:43:42.637Z,0
2022-11-13T01:44:58.948Z,0
2022-11-13T01:46:15.241Z,0
2022-11-13T01:47:31.520Z,0
2022-11-13T01:48:47.818Z,0
2022-11-13T01:50:04.111Z,0
2022-11-13T01:51:20.410Z,0
2022-11-13T01:52:36.700Z,0
2022-11-13T01:53:52.986Z,0
2022-11-13T01:55:09.283Z,0
2022-11-13T01:56:25.572Z,0
2022-11-13T01:57:41.865Z,0
2022-11-13T01:58:57.181Z,0
2022-11-13T02:00:13.475Z,0
2022-11-13T02:01:29.773Z,0
2022-11-13T02:02:46.054Z,0
2022-11-13T02:04:02.352Z,0
2022-11-13T02:05:18.650Z,0
2022-11-13T02:06:34.940Z,0
2022-11-13T02:09:07.496Z,0
2022-11-13T02:10:23.798Z,0
2022-11-13T02:11:40.081Z,0
2022-11-13T02:12:56.374Z,0
2022-11-13T02:14:12.670Z,0
2022-11-13T02:15:27.980Z,0
2022-11-13T02:16:44.274Z,0
2022-11-13T02:18:00.568Z,0
2022-11-13T02:19:16.868Z,0
2022-11-13T02:20:33.149Z,0
2022-11-13T02:21:49.447Z,0
2022-11-13T02:23:05.738Z,0
2022-11-13T02:24:22.040Z,0
2022-11-13T02:25:38.326Z,0
2022-11-13T02:26:54.616Z,0
2022-11-13T02:28:10.907Z,0
2022-11-13T02:29:27.205Z,0
2022-11-13T02:30:43.507Z,0
2022-11-13T02:31:58.803Z,0
2022-11-13T02:33:15.097Z,0
2022-11-13T02:34:31.399Z,0
2022-11-13T02:35:47.690Z,0
2022-11-13T02:37:03.992Z,0
2022-11-13T02:38:20.268Z,0
2022-11-13T02:39:36.563Z,0
2022-11-13T02:40:52.871Z,0
2022-11-13T02:42:09.158Z,0
2022-11-13T02:43:25.455Z,0
2022-11-13T02:44:41.746Z,0
2022-11-13T02:45:58.037Z,0
2022-11-13T02:47:14.332Z,0
2022-11-13T02:48:29.635Z,0
2022-11-13T02:49:45.927Z,0
2022-11-13T02:51:02.234Z,0
2022-11-13T02:52:18.509Z,0
2022-11-13T02:53:34.814Z,0
2022-11-13T02:54:51.109Z,0
2022-11-13T02:56:07.403Z,0
2022-11-13T02:57:23.691Z,0
2022-11-13T02:58:39.990Z,0
2022-11-13T02:59:56.279Z,0
2022-11-13T03:01:12.575Z,0
2022-11-13T03:02:28.864Z,0
2022-11-13T03:03:45.168Z,0
2022-11-13T03:05:00.470Z,0
2022-11-13T03:06:16.762Z,0
2022-11-13T03:07:33.063Z,0
2022-11-13T03:08:49.341Z,0
2022-11-13T03:10:05.641Z,0
2022-11-13T03:11:21.927Z,0
2022-11-13T03:12:38.231Z,0
2022-11-13T03:13:54.518Z,0
2022-11-13T03:16:27.114Z,0
2022-11-13T03:17:43.408Z,0
2022-11-13T03:18:59.693Z,0
2022-11-13T03:20:15.987Z,0
2022-11-13T03:21:31.307Z,0
2022-11-13T03:22:47.583Z,0
2022-11-13T03:24:03.878Z,0
2022-11-13T03:25:20.171Z,0
2022-11-13T03:26:36.466Z,0
2022-11-13T03:27:52.763Z,0
2022-11-13T03:29:09.069Z,0
2022-11-13T03:30:25.346Z,0
2022-11-13T03:31:41.656Z,0
2022-11-13T03:32:57.932Z,0
2022-11-13T03:34:14.242Z,0
2022-11-13T03:35:30.528Z,0
2022-11-13T03:36:46.820Z,0
2022-11-13T03:38:02.125Z,0
2022-11-13T03:39:18.418Z,0
2022-11-13T03:40:34.717Z,0
2022-11-13T03:41:51.016Z,0
2022-11-13T03:43:07.309Z,0
2022-11-13T03:44:23.602Z,0
2022-11-13T03:45:39.887Z,0
2022-11-13T03:46:56.192Z,0
2022-11-13T03:48:12.471Z,0
2022-11-13T03:49:28.762Z,0
2022-11-13T03:50:45.053Z,0
2022-11-13T03:52:01.352Z,0
2022-11-13T03:53:17.643Z,0
2022-11-13T03:54:32.960Z,0
2022-11-13T03:55:49.248Z,0
2022-11-13T03:57:05.551Z,0
2022-11-13T03:58:21.836Z,0
2022-11-13T03:59:38.133Z,0
2022-11-13T04:00:54.437Z,0
2022-11-13T04:02:10.717Z,0
2022-11-13T04:03:27.005Z,0
2022-11-13T04:04:43.308Z,0
2022-11-13T04:05:59.595Z,0
2022-11-13T04:07:15.886Z,0
2022-11-13T04:08:32.195Z,0
2022-11-13T04:09:48.475Z,0
2022-11-13T04:11:03.783Z,0
2022-11-13T04:12:20.082Z,0
2022-11-13T04:13:36.380Z,0
2022-11-13T04:14:52.677Z,0
2022-11-13T04:16:08.968Z,0
2022-11-13T04:17:25.258Z,0
2022-11-13T04:18:41.544Z,0
2022-11-13T04:19:57.850Z,0
2022-11-13T04:21:14.131Z,0
2022-11-13T04:22:30.431Z,0
2022-11-13T04:23:46.717Z,0
2022-11-13T04:25:03.023Z,0
2022-11-13T04:26:19.314Z,0
2022-11-13T04:27:34.617Z,0
2022-11-13T04:28:50.905Z,0
2022-11-13T04:30:07.199Z,0
2022-11-13T04:31:23.503Z,0
2022-11-13T04:32:39.795Z,0
2022-11-13T04:33:56.094Z,0
2022-11-13T04:35:12.375Z,0
2022-11-13T04:36:28.677Z,0
2022-11-13T04:37:44.973Z,0
2022-11-13T04:39:01.259Z,0
2022-11-13T04:40:17.556Z,0
2022-11-13T04:41:33.838Z,0
2022-11-13T04:42:50.134Z,0
2022-11-13T04:44:05.460Z,0
2022-11-13T04:45:21.748Z,0
2022-11-13T04:46:38.035Z,0
2022-11-13T04:47:54.327Z,0
2022-11-13T04:49:10.619Z,0
2022-11-13T04:50:26.912Z,0
2022-11-13T04:51:43.212Z,0
2022-11-13T04:52:59.494Z,0
2022-11-13T04:54:15.797Z,0
2022-11-13T04:55:32.100Z,0
2022-11-13T04:56:48.393Z,0
2022-11-13T04:58:04.679Z,0
2022-11-13T04:59:20.975Z,0
2022-11-13T05:00:37.269Z,0
2022-11-13T05:01:52.565Z,0
2022-11-13T05:03:08.866Z,0
2022-11-13T05:04:25.167Z,0
2022-11-13T05:05:41.456Z,0
2022-11-13T05:06:57.746Z,0
2022-11-13T05:08:14.049Z,0
2022-11-13T05:09:30.344Z,0
2022-11-13T05:10:46.638Z,0
2022-11-13T05:12:02.925Z,0
2022-11-13T05:13:19.212Z,0
2022-11-13T05:14:35.516Z,0
2022-11-13T05:15:51.797Z,0
2022-11-13T05:17:08.096Z,0
2022-11-13T05:18:23.410Z,0
2022-11-13T05:19:39.695Z,0
2022-11-13T05:20:55.985Z,0
2022-11-13T05:22:12.277Z,0
2022-11-13T05:23:28.567Z,0
2022-11-13T05:24:44.867Z,0
2022-11-13T05:26:01.160Z,0
2022-11-13T05:27:17.449Z,0
2022-11-13T05:28:33.755Z,0
2022-11-13T05:29:50.043Z,0
2022-11-13T05:31:06.329Z,0
2022-11-13T05:32:22.621Z,0
2022-11-13T05:33:38.933Z,0
2022-11-13T05:34:54.234Z,0
2022-11-13T05:36:10.535Z,0
2022-11-13T05:37:26.830Z,0
2022-11-13T05:38:43.105Z,0
2022-11-13T05:39:59.408Z,0
2022-11-13T05:41:15.703Z,0
2022-11-13T05:42:31.991Z,0
2022-11-13T05:43:48.295Z,0
2022-11-13T05:45:04.579Z,0
2022-11-13T05:46:20.823Z,0
2022-11-13T05:47:37.118Z,0
2022-11-13T05:48:53.368Z,0
2022-11-13T05:50:09.602Z,0
2022-11-13T05:51:24.918Z,0
2022-11-13T05:52:41.208Z,0
2022-11-13T05:53:57.505Z,0
2022-11-13T05:55:13.756Z,0
2022-11-13T05:56:30.000Z,0
2022-11-13T05:57:45.261Z,0
2022-11-13T05:59:01.495Z,0
2022-11-13T06:00:17.746Z,0
2022-11-13T06:01:33.993Z,0
2022-11-13T06:02:50.227Z,0
2022-11-13T06:04:06.460Z,0
2022-11-13T06:05:22.692Z,0
2022-11-13T06:06:38.945Z,0
2022-11-13T06:07:55.185Z,0
2022-11-13T06:09:11.432Z,0
2022-11-13T06:10:27.666Z,0
2022-11-13T06:11:43.898Z,0
2022-11-13T06:13:00.133Z,0
2022-11-13T06:14:15.395Z,0
2022-11-13T06:15:31.627Z,0
2022-11-13T06:16:47.877Z,0
2022-11-13T06:18:04.114Z,0
2022-11-13T06:19:20.350Z,0
2022-11-13T06:20:36.583Z,0
2022-11-13T06:21:52.823Z,0
2022-11-13T06:23:09.065Z,0
2022-11-13T06:24:25.314Z,0
2022-11-13T06:25:41.549Z,0
2022-11-13T06:26:57.785Z,0
2022-11-13T06:28:14.035Z,0
2022-11-13T06:29:30.262Z,5
2022-11-13T06:30:45.517Z,5
2022-11-13T06:32:01.754Z,5
2022-11-13T06:33:18.000Z,5
2022-11-13T06:34:34.243Z,5
2022-11-13T06:35:50.486Z,5
2022-11-13T06:37:06.717Z,5
2022-11-13T06:38:22.000Z,5
2022-11-13T06:39:39.195Z,11
2022-11-13T06:40:55.444Z,5
2022-11-13T06:42:11.669Z,11
2022-11-13T06:43:27.909Z,11
2022-11-13T06:44:44.158Z,11
2022-11-13T06:46:00.396Z,11
2022-11-13T06:47:15.647Z,11
2022-11-13T06:48:31.885Z,11
2022-11-13T06:49:48.126Z,11
2022-11-13T06:51:04.368Z,11
2022-11-13T06:52:20.620Z,16
2022-11-13T06:53:36.841Z,16
2022-11-13T06:54:53.092Z,16
2022-11-13T06:56:09.334Z,16
2022-11-13T06:57:25.000Z,16
2022-11-13T06:58:41.799Z,16
2022-11-13T06:59:58.046Z,22
2022-11-13T07:01:14.287Z,22
2022-11-13T07:02:30.521Z,22
2022-11-13T07:03:45.777Z,22
2022-11-13T07:05:02.017Z,22
2022-11-13T07:06:18.261Z,22
2022-11-13T07:07:34.508Z,22
2022-11-13T07:08:50.738Z,22
2022-11-13T07:10:06.983Z,22
2022-11-13T07:11:23.214Z,22
2022-11-13T07:12:39.450Z,28
2022-11-13T07:13:55.702Z,28
2022-11-13T07:15:11.936Z,28
2022-11-13T07:16:28.164Z,28
2022-11-13T07:17:44.421Z,28
2022-11-13T07:19:00.646Z,28
2022-11-13T07:20:15.909Z,28
2022-11-13T07:21:32.157Z,33
2022-11-13T07:22:48.395Z,33
2022-11-13T07:24:04.622Z,33
2022-11-13T07:25:20.875Z,33
2022-11-13T07:26:37.109Z,33
2022-11-13T07:27:53.347Z,33
2022-11-13T07:29:09.587Z,33
2022-11-13T07:30:25.829Z,33
2022-11-13T07:31:42.052Z,33
2022-11-13T07:32:58.309Z,33
2022-11-13T07:34:14.548Z,33
2022-11-13T07:35:30.778Z,33
2022-11-13T07:36:46.035Z,33
2022-11-13T07:38:02.272Z,39
2022-11-13T07:39:18.513Z,33
2022-11-13T07:40:34.744Z,33
2022-11-13T07:41:50.998Z,39
2022-11-13T07:43:07.235Z,39
2022-11-13T07:44:23.465Z,39
2022-11-13T07:45:39.715Z,39
2022-11-13T07:46:55.956Z,45
2022-11-13T07:48:12.191Z,39
2022-11-13T07:49:28.421Z,45
2022-11-13T07:50:44.663Z,45
2022-11-13T07:52:00.913Z,45
2022-11-13T07:53:16.169Z,45
2022-11-13T07:55:48.647Z,50
2022-11-13T07:57:04.874Z,50
2022-11-13T07:58:21.114Z,50
2022-11-13T07:59:37.361Z,50
2022-11-13T08:00:53.596Z,50
2022-11-13T08:02:09.828Z,56
2022-11-13T08:03:26.083Z,56
2022-11-13T08:04:42.325Z,56
2022-11-13T08:05:58.565Z,50
2022-11-13T08:07:14.793Z,56
2022-11-13T08:08:31.031Z,56
2022-11-13T08:09:46.295Z,56
2022-11-13T08:11:02.531Z,56
2022-11-13T08:12:18.776Z,56
2022-11-13T08:13:34.998Z,61
2022-11-13T08:14:51.237Z,61
2022-11-13T08:16:07.489Z,61
2022-11-13T08:17:23.715Z,61
2022-11-13T08:18:39.972Z,67
2022-11-13T08:19:56.205Z,67
2022-11-13T08:21:12.431Z,67
2022-11-13T08:22:28.675Z,73
2022-11-13T08:23:44.913Z,67
2022-11-13T08:25:01.159Z,61
2022-11-13T08:26:16.410Z,67
2022-11-13T08:27:32.660Z,61
2022-11-13T08:28:48.883Z,67
2022-11-13T08:30:05.122Z,61
2022-11-13T08:31:21.380Z,61
2022-11-13T08:32:37.615Z,67
2022-11-13T08:33:53.858Z,61
2022-11-13T08:35:10.079Z,56
2022-11-13T08:36:26.325Z,56
2022-11-13T08:37:42.572Z,61
2022-11-13T08:38:58.816Z,67
2022-11-13T08:40:15.047Z,67
2022-11-13T08:41:31.280Z,61
2022-11-13T08:42:46.530Z,61
2022-11-13T08:44:02.779Z,67
2022-11-13T08:45:19.009Z,67
2022-11-13T08:46:35.258Z,67
2022-11-13T08:47:51.494Z,67
2022-11-13T08:49:07.726Z,67
2022-11-13T08:50:23.969Z,67
2022-11-13T08:51:40.214Z,67
2022-11-13T08:52:56.451Z,73
2022-11-13T08:54:12.699Z,84
2022-11-13T08:55:28.927Z,78
2022-11-13T08:56:45.175Z,84
2022-11-13T08:58:01.419Z,90
2022-11-13T08:59:16.675Z,84
2022-11-13T09:00:32.907Z,95
2022-11-13T09:01:49.152Z,84
2022-11-13T09:03:05.384Z,78
2022-11-13T09:04:21.620Z,78
2022-11-13T09:05:37.871Z,73
2022-11-13T09:06:54.096Z,78
2022-11-13T09:08:10.333Z,84
2022-11-13T09:09:26.569Z,78
2022-11-13T09:10:42.828Z,73
2022-11-13T09:11:59.064Z,84
2022-11-13T09:13:15.292Z,84
2022-11-13T09:14:31.532Z,73
2022-11-13T09:15:46.791Z,67
2022-11-13T09:17:03.024Z,78
2022-11-13T09:18:19.268Z,90
2022-11-13T09:19:35.506Z,95
2022-11-13T09:20:51.741Z,95
2022-11-13T09:22:07.989Z,101
2022-11-13T09:23:24.223Z,123
2022-11-13T09:24:40.471Z,101
2022-11-13T09:25:56.704Z,90
2022-11-13T09:27:12.953Z,90
2022-11-13T09:28:29.181Z,84
2022-11-13T09:29:45.417Z,90
2022-11-13T09:31:01.668Z,101
2022-11-13T09:32:18.012Z,106
2022-11-13T09:33:34.258Z,101
2022-11-13T09:34:50.508Z,90
2022-11-13T09:36:06.731Z,84
2022-11-13T09:37:22.980Z,90
2022-11-13T09:38:39.218Z,84
2022-11-13T09:39:55.460Z,84
2022-11-13T09:41:11.704Z,84
2022-11-13T09:42:27.928Z,84
2022-11-13T09:43:44.178Z,84
2022-11-13T09:45:00.410Z,84
2022-11-13T09:46:16.653Z,90
2022-11-13T09:47:32.899Z,101
2022-11-13T09:48:48.148Z,95
2022-11-13T09:50:04.375Z,101
2022-11-13T09:51:20.616Z,101
2022-11-13T09:52:36.860Z,101
2022-11-13T09:53:53.107Z,95
2022-11-13T09:55:09.340Z,90
2022-11-13T09:56:25.578Z,101
2022-11-13T09:57:41.811Z,101
2022-11-13T09:58:58.051Z,101
2022-11-13T10:00:14.305Z,95
2022-11-13T10:01:30.546Z,101
2022-11-13T10:02:46.774Z,84
2022-11-13T10:04:03.007Z,84
2022-11-13T10:05:18.277Z,90
2022-11-13T10:06:34.507Z,90
2022-11-13T10:07:50.754Z,84
2022-11-13T10:09:06.977Z,73
2022-11-13T10:10:23.218Z,78
2022-11-13T10:11:39.473Z,90
2022-11-13T10:12:54.722Z,84
2022-11-13T10:14:10.956Z,84
2022-11-13T10:15:27.195Z,90
2022-11-13T10:16:43.450Z,106
2022-11-13T10:17:59.683Z,129
2022-11-13T10:19:15.917Z,123
2022-11-13T10:20:32.167Z,90
2022-11-13T10:21:48.390Z,90
2022-11-13T10:23:04.645Z,90
2022-11-13T10:24:20.884Z,90
2022-11-13T10:25:37.113Z,101
2022-11-13T10:26:53.355Z,101
2022-11-13T10:28:09.600Z,118
2022-11-13T10:29:24.859Z,106
2022-11-13T10:30:41.088Z,106
2022-11-13T10:31:57.331Z,95
2022-11-13T10:33:13.562Z,90
2022-11-13T10:34:29.799Z,95
2022-11-13T10:35:46.042Z,118
2022-11-13T10:37:02.284Z,168
2022-11-13T10:38:18.519Z,123
2022-11-13T10:39:34.752Z,95
2022-11-13T10:40:51.010Z,95
2022-11-13T10:42:07.240Z,112
2022-11-13T10:43:23.478Z,151
2022-11-13T10:44:39.724Z,129
2022-11-13T10:45:54.965Z,157
2022-11-13T10:47:11.211Z,157
2022-11-13T10:48:27.445Z,163
2022-11-13T10:49:43.698Z,202
2022-11-13T10:50:59.939Z,157
2022-11-13T10:52:16.175Z,163
2022-11-13T10:53:32.415Z,337
2022-11-13T10:54:48.652Z,258
2022-11-13T10:56:04.875Z,180
2022-11-13T10:57:21.122Z,185
2022-11-13T10:58:37.358Z,196
2022-11-13T10:59:53.607Z,151
2022-11-13T11:01:09.837Z,112
2022-11-13T11:02:25.086Z,146
2022-11-13T11:04:57.563Z,258
2022-11-13T11:06:13.811Z,264
2022-11-13T11:07:30.056Z,298
2022-11-13T11:08:46.281Z,264
2022-11-13T11:10:02.519Z,191
2022-11-13T11:11:18.767Z,123
2022-11-13T11:12:35.017Z,112
2022-11-13T11:13:51.240Z,112
2022-11-13T11:15:07.492Z,101
2022-11-13T11:16:23.718Z,84
2022-11-13T11:17:39.960Z,123
2022-11-13T11:18:55.210Z,112
2022-11-13T11:20:11.459Z,106
2022-11-13T11:21:27.692Z,112
2022-11-13T11:22:43.944Z,129
2022-11-13T11:24:00.179Z,123
2022-11-13T11:25:16.407Z,101
2022-11-13T11:26:32.643Z,95
2022-11-13T11:27:48.880Z,95
2022-11-13T11:29:05.140Z,101
2022-11-13T11:30:21.374Z,118
2022-11-13T11:31:37.617Z,106
2022-11-13T11:32:53.838Z,112
2022-11-13T11:34:10.078Z,118
2022-11-13T11:35:25.347Z,129
2022-11-13T11:36:41.581Z,118
2022-11-13T11:37:57.816Z,118
2022-11-13T11:39:14.049Z,112
2022-11-13T11:40:30.287Z,140
2022-11-13T11:41:46.537Z,129
2022-11-13T11:43:02.780Z,123
2022-11-13T11:44:19.014Z,185
2022-11-13T11:45:35.245Z,264
2022-11-13T11:46:51.484Z,534
2022-11-13T11:48:07.719Z,433
2022-11-13T11:49:23.965Z,511
2022-11-13T11:50:40.212Z,551
2022-11-13T11:51:55.464Z,343
2022-11-13T11:53:11.702Z,315
2022-11-13T11:54:27.945Z,191
2022-11-13T11:55:44.181Z,123
2022-11-13T11:57:00.421Z,112
2022-11-13T11:58:16.651Z,95
2022-11-13T11:59:32.890Z,95
2022-11-13T12:00:49.145Z,129
2022-11-13T12:02:05.369Z,151
2022-11-13T12:03:21.616Z,140
2022-11-13T12:04:37.862Z,118
2022-11-13T12:05:54.099Z,112
2022-11-13T12:07:10.321Z,129
2022-11-13T12:08:25.582Z,146
2022-11-13T12:09:41.820Z,174
2022-11-13T12:10:58.065Z,219
2022-11-13T12:12:14.292Z,500
2022-11-13T12:13:30.539Z,1001
2022-11-13T12:14:46.778Z,838
2022-11-13T12:16:03.028Z,551
2022-11-13T12:17:19.250Z,613
2022-11-13T12:18:35.500Z,585
2022-11-13T12:19:51.733Z,652
2022-11-13T12:21:07.972Z,686
2022-11-13T12:22:24.216Z,759
2022-11-13T12:23:40.451Z,787
2022-11-13T12:24:55.708Z,776
2022-11-13T12:26:11.937Z,815
2022-11-13T12:27:28.190Z,843
2022-11-13T12:28:44.423Z,883
2022-11-13T12:30:00.651Z,866
2022-11-13T12:31:16.909Z,826
2022-11-13T12:32:33.146Z,843
2022-11-13T12:33:49.383Z,821
2022-11-13T12:35:05.610Z,641
2022-11-13T12:36:21.861Z,630
2022-11-13T12:37:38.095Z,714
2022-11-13T12:38:54.336Z,1063
2022-11-13T12:40:10.566Z,1147
2022-11-13T12:41:25.829Z,1321
2022-11-13T12:42:42.066Z,1175
2022-11-13T12:43:58.292Z,1063
2022-11-13T12:45:14.540Z,1299
2022-11-13T12:46:30.772Z,1428
2022-11-13T12:47:47.012Z,1586
2022-11-13T12:49:03.262Z,1411
2022-11-13T12:50:19.481Z,686
2022-11-13T12:51:35.720Z,562
2022-11-13T12:52:51.970Z,1006
2022-11-13T12:54:08.215Z,1513
2022-11-13T12:55:24.436Z,1366
2022-11-13T12:56:40.675Z,1552
2022-11-13T12:57:55.946Z,1344
2022-11-13T12:59:12.179Z,1113
2022-11-13T13:00:28.417Z,1085
2022-11-13T13:01:44.661Z,1327
2022-11-13T13:03:00.890Z,1321
2022-11-13T13:04:17.124Z,950
2022-11-13T13:05:33.371Z,579
2022-11-13T13:06:49.614Z,652
2022-11-13T13:08:05.856Z,1389
2022-11-13T13:09:22.077Z,1591
2022-11-13T13:10:38.318Z,1513
2022-11-13T13:11:54.563Z,1186
2022-11-13T13:13:10.808Z,1108
2022-11-13T13:14:26.063Z,855
2022-11-13T13:15:42.296Z,736
2022-11-13T13:16:58.542Z,551
2022-11-13T13:18:14.770Z,247
2022-11-13T13:19:31.000Z,180
2022-11-13T13:20:47.246Z,140
2022-11-13T13:22:03.480Z,146
2022-11-13T13:23:19.723Z,241
2022-11-13T13:24:35.970Z,230
2022-11-13T13:25:52.198Z,236
2022-11-13T13:27:08.443Z,613
2022-11-13T13:28:24.683Z,736
2022-11-13T13:29:40.918Z,601
2022-11-13T13:30:56.175Z,399
2022-11-13T13:32:12.420Z,337
2022-11-13T13:33:28.652Z,174
2022-11-13T13:34:44.894Z,151
2022-11-13T13:36:01.128Z,225
2022-11-13T13:37:17.371Z,517
2022-11-13T13:38:33.595Z,793
2022-11-13T13:39:49.837Z,826
2022-11-13T13:41:06.085Z,793
2022-11-13T13:42:22.328Z,360
2022-11-13T13:43:38.565Z,208
2022-11-13T13:44:54.790Z,129
2022-11-13T13:46:11.027Z,180
2022-11-13T13:47:26.282Z,258
2022-11-13T13:48:42.523Z,146
2022-11-13T13:49:58.761Z,118
2022-11-13T13:51:15.000Z,112
2022-11-13T13:52:31.252Z,140
2022-11-13T13:53:47.475Z,129
2022-11-13T13:55:03.714Z,101
2022-11-13T13:56:19.957Z,106
2022-11-13T13:57:36.197Z,320
2022-11-13T13:58:52.436Z,725
2022-11-13T14:00:08.678Z,731
2022-11-13T14:01:24.912Z,697
2022-11-13T14:02:41.150Z,545
2022-11-13T14:03:56.400Z,427
2022-11-13T14:05:12.648Z,298
2022-11-13T14:06:28.888Z,168
2022-11-13T14:07:45.124Z,106
2022-11-13T14:09:01.352Z,219
2022-11-13T14:10:17.598Z,399
2022-11-13T14:11:33.843Z,641
2022-11-13T14:12:50.076Z,765
2022-11-13T14:14:06.322Z,708
2022-11-13T14:15:22.559Z,523
2022-11-13T14:16:38.800Z,320
2022-11-13T14:17:55.029Z,472
2022-11-13T14:19:11.266Z,680
2022-11-13T14:20:26.528Z,669
2022-11-13T14:21:42.757Z,658
2022-11-13T14:22:59.001Z,607
2022-11-13T14:24:15.243Z,455
2022-11-13T14:25:31.482Z,253
2022-11-13T14:26:47.716Z,123
2022-11-13T14:28:02.969Z,73
2022-11-13T14:29:19.220Z,95
2022-11-13T14:30:35.446Z,112
2022-11-13T14:31:51.683Z,61
2022-11-13T14:33:07.933Z,56
2022-11-13T14:34:24.174Z,56
2022-11-13T14:35:40.412Z,61
2022-11-13T14:36:56.639Z,84
2022-11-13T14:38:12.884Z,123
2022-11-13T14:39:29.117Z,163
2022-11-13T14:40:45.365Z,135
2022-11-13T14:42:01.599Z,151
2022-11-13T14:43:17.839Z,258
2022-11-13T14:44:33.081Z,275
2022-11-13T14:45:49.319Z,191
2022-11-13T14:47:05.558Z,151
2022-11-13T14:48:21.812Z,129
2022-11-13T14:49:38.045Z,90
2022-11-13T14:50:54.283Z,50
2022-11-13T14:52:10.520Z,45
2022-11-13T14:53:26.769Z,39
2022-11-13T14:54:43.005Z,39
2022-11-13T14:55:59.234Z,33
2022-11-13T14:57:15.479Z,33
2022-11-13T14:58:31.709Z,33
2022-11-13T14:59:47.946Z,28
2022-11-13T15:01:03.204Z,28
2022-11-13T15:02:19.452Z,22
2022-11-13T15:03:35.685Z,22
2022-11-13T15:04:51.923Z,22
2022-11-13T15:06:08.166Z,22
2022-11-13T15:07:24.396Z,16
2022-11-13T15:08:40.634Z,16
2022-11-13T15:09:56.885Z,16
2022-11-13T15:11:13.122Z,16
2022-11-13T15:12:29.345Z,11
2022-11-13T15:13:45.587Z,11
2022-11-13T15:15:01.841Z,11
2022-11-13T15:16:18.072Z,11
2022-11-13T15:17:33.333Z,11
2022-11-13T15:18:49.559Z,5
2022-11-13T15:20:05.805Z,5
2022-11-13T15:21:22.036Z,5
2022-11-13T15:22:38.270Z,5
2022-11-13T15:25:10.758Z,5
2022-11-13T15:26:26.995Z,5
2022-11-13T15:27:43.236Z,0
2022-11-13T15:28:59.469Z,0
2022-11-13T15:30:15.708Z,0
2022-11-13T15:31:31.955Z,0
2022-11-13T15:32:48.193Z,0
2022-11-13T15:34:03.447Z,0
2022-11-13T15:35:19.686Z,0
2022-11-13T15:36:35.915Z,0
2022-11-13T15:37:52.159Z,0
2022-11-13T15:39:08.388Z,0
2022-11-13T15:40:24.637Z,0
2022-11-13T15:41:40.884Z,0
2022-11-13T15:42:57.124Z,0
2022-11-13T15:44:13.350Z,0
2022-11-13T15:45:29.599Z,0
2022-11-13T15:46:45.837Z,0
2022-11-13T15:48:02.076Z,0
2022-11-13T15:49:18.314Z,0
2022-11-13T15:50:33.562Z,0
2022-11-13T15:51:49.808Z,0
2022-11-13T15:53:06.031Z,0
2022-11-13T15:54:22.273Z,0
2022-11-13T15:55:38.507Z,0
2022-11-13T15:56:54.750Z,0
2022-11-13T15:58:10.984Z,0
2022-11-13T15:59:27.241Z,0
2022-11-13T16:00:43.465Z,0
2022-11-13T16:01:59.715Z,0
2022-11-13T16:03:15.956Z,0
2022-11-13T16:04:32.244Z,0
2022-11-13T16:05:48.528Z,0
2022-11-13T16:07:03.838Z,0
2022-11-13T16:08:20.141Z,0
2022-11-13T16:09:36.435Z,0
2022-11-13T16:10:52.733Z,0
2022-11-13T16:12:09.020Z,0
2022-11-13T16:13:25.298Z,0
2022-11-13T16:14:41.612Z,0
2022-11-13T16:15:57.890Z,0
2022-11-13T16:17:14.178Z,0
2022-11-13T16:18:30.482Z,0
2022-11-13T16:19:46.769Z,0
2022-11-13T16:21:03.069Z,0
2022-11-13T16:22:19.359Z,0
2022-11-13T16:23:34.658Z,0
2022-11-13T16:24:50.954Z,0
2022-11-13T16:26:07.244Z,0
2022-11-13T16:27:23.553Z,0
2022-11-13T16:28:39.836Z,0
2022-11-13T16:29:56.133Z,0
2022-11-13T16:31:12.419Z,0
2022-11-13T16:32:28.707Z,0
2022-11-13T16:33:45.018Z,0
2022-11-13T16:35:01.304Z,0
2022-11-13T16:36:17.602Z,0
2022-11-13T16:37:33.879Z,0
2022-11-13T16:38:50.189Z,0
2022-11-13T16:40:05.490Z,0
2022-11-13T16:41:21.781Z,0
2022-11-13T16:42:38.084Z,0
2022-11-13T16:43:54.364Z,0
2022-11-13T16:45:10.666Z,0
2022-11-13T16:46:26.951Z,0
2022-11-13T16:47:43.248Z,0
2022-11-13T16:48:59.550Z,0
2022-11-13T16:50:15.828Z,0
2022-11-13T16:51:32.116Z,0
2022-11-13T16:52:48.419Z,0
2022-11-13T16:54:04.703Z,0
2022-11-13T16:55:21.000Z,0
2022-11-13T16:56:37.424Z,0
2022-11-13T16:57:53.715Z,0
2022-11-13T16:59:10.000Z,0
2022-11-13T17:00:26.292Z,0
2022-11-13T17:01:42.582Z,0
2022-11-13T17:02:58.875Z,0
2022-11-13T17:04:15.171Z,0
2022-11-13T17:05:31.470Z,0
2022-11-13T17:06:47.751Z,0
2022-11-13T17:08:04.050Z,0
2022-11-13T17:09:20.339Z,0
2022-11-13T17:10:36.639Z,0
2022-11-13T17:11:52.939Z,0
2022-11-13T17:13:08.237Z,0
2022-11-13T17:14:24.542Z,0
2022-11-13T17:15:40.820Z,0
2022-11-13T17:16:57.113Z,0
2022-11-13T17:18:13.422Z,0
2022-11-13T17:19:29.701Z,0
2022-11-13T17:20:46.003Z,0
2022-11-13T17:22:02.284Z,0
2022-11-13T17:23:18.586Z,0
2022-11-13T17:24:34.876Z,0
2022-11-13T17:25:51.171Z,0
2022-11-13T17:27:07.458Z,0
2022-11-13T17:28:23.760Z,0
2022-11-13T17:29:39.064Z,0
2022-11-13T17:30:55.350Z,0
2022-11-13T17:32:11.646Z,0
2022-11-13T17:33:27.938Z,0
2022-11-13T17:34:44.233Z,0
2022-11-13T17:36:00.538Z,0
2022-11-13T17:37:16.816Z,0
2022-11-13T17:38:33.126Z,0
2022-11-13T17:39:49.416Z,0
2022-11-13T17:41:05.705Z,0
2022-11-13T17:42:21.990Z,0
2022-11-13T17:43:38.282Z,0
2022-11-13T17:46:10.866Z,0
2022-11-13T17:47:26.188Z,0
2022-11-13T17:48:42.483Z,0
2022-11-13T17:49:58.769Z,0
2022-11-13T17:51:15.068Z,0
2022-11-13T17:52:31.354Z,0
2022-11-13T17:53:47.645Z,0
2022-11-13T17:55:03.943Z,0
2022-11-13T17:56:20.229Z,0
2022-11-13T17:57:36.539Z,0
2022-11-13T17:58:52.820Z,0
2022-11-13T18:00:09.109Z,0
2022-11-13T18:01:25.406Z,0
2022-11-13T18:02:41.706Z,0
2022-11-13T18:03:57.019Z,0
2022-11-13T18:05:13.309Z,0
2022-11-13T18:06:29.586Z,0
2022-11-13T18:07:45.898Z,0
2022-11-13T18:09:02.187Z,0
2022-11-13T18:10:18.467Z,0
2022-11-13T18:11:34.778Z,0
2022-11-13T18:12:51.059Z,0
2022-11-13T18:14:07.348Z,0
2022-11-13T18:15:23.654Z,0
2022-11-13T18:16:39.949Z,0
2022-11-13T18:17:56.227Z,0
2022-11-13T18:19:12.528Z,0
2022-11-13T18:20:27.844Z,0
2022-11-13T18:21:44.130Z,0
2022-11-13T18:23:00.418Z,0
2022-11-13T18:24:16.718Z,0